Terminal Aerodrome Forecast
Issued by NWS Atlanta, GA

Home | Current Version | Previous Version | Text Only | Print | Product List | Glossary On
Versions: 1 2 3 4 5 6 7 8 9 10 11 12 13 14 15 16 17 18 19 20 21 22 23 24 25 26 27 28 29 30 31 32 33 34 35 36 37
000
FTUS42 KFFC 271402 AAA
TAFATL
TAF AMD
KATL 271402Z 2714/2818 17005KT P6SM SCT070 BKN250
     FM271500 13008KT P6SM BKN050
     FM280000 13007KT P6SM FEW050 SCT250
     FM281100 11007KT 6SM HZ FEW050 SCT250
     FM281300 09008KT P6SM FEW050 SCT250
     FM281600 11008KT P6SM SCT045 SCT250=

USA.gov is the U.S. government's official web portal to all federal, state and local government web resources and services.